Time;durP1;ratioP1;P1;durP2;ratioP2;P2;SDS_P1;SDS_P2;PMS_P1;PMS_P2;Temp;Humidity;BMP_temperature;BMP_pressure;BME280_temperature;BME280_humidity;BME280_pressure;Samples;Min_cycle;Max_cycle;Signal;HPM_P1;HPM_P2
2020/12/23 00:00:19;;;;;;;21.38;9.88;;;10.10;63.60;;;;;;4979085;28;20042;-61
2020/12/23 00:02:45;;;;;;;32.95;11.05;;;10.10;63.40;;;;;;4998832;28;20512;-62
2020/12/23 00:05:14;;;;;;;21.52;10.48;;;10.00;63.50;;;;;;4993452;28;20049;-61
2020/12/23 00:07:40;;;;;;;19.35;9.85;;;10.00;63.70;;;;;;4995816;28;20081;-61
2020/12/23 00:10:06;;;;;;;27.98;10.32;;;10.00;63.70;;;;;;4985822;28;20116;-61
2020/12/23 00:12:33;;;;;;;22.67;10.32;;;9.90;63.50;;;;;;4988931;28;20034;-61
2020/12/23 00:14:59;;;;;;;187.90;12.15;;;9.90;63.50;;;;;;4989757;28;20045;-61
2020/12/23 00:17:25;;;;;;;235.60;12.18;;;9.90;63.50;;;;;;4990277;28;20038;-61
2020/12/23 00:19:51;;;;;;;104.40;8.88;;;9.80;63.30;;;;;;4994457;28;20380;-61
2020/12/23 00:22:16;;;;;;;29.35;6.45;;;9.80;63.20;;;;;;4988621;28;23341;-61
2020/12/23 00:24:43;;;;;;;65.28;8.57;;;9.70;63.10;;;;;;4988643;28;20049;-61
2020/12/23 00:27:08;;;;;;;106.95;9.02;;;9.60;63.10;;;;;;4988913;28;20092;-61
2020/12/23 00:29:34;;;;;;;65.13;8.07;;;9.60;63.10;;;;;;4991800;28;20038;-61
2020/12/23 00:32:00;;;;;;;75.18;8.65;;;9.50;63.10;;;;;;4991655;28;20022;-61
2020/12/23 00:34:25;;;;;;;84.35;9.02;;;9.50;63.20;;;;;;4994252;28;20458;-61
2020/12/23 00:36:55;;;;;;;11.90;7.32;;;9.40;63.90;;;;;;4990373;28;20038;-61
2020/12/23 00:39:21;;;;;;;16.00;7.95;;;9.40;63.30;;;;;;4995323;28;20042;-61
2020/12/23 00:41:47;;;;;;;17.60;8.15;;;9.40;63.60;;;;;;4988645;28;20057;-61
2020/12/23 00:44:13;;;;;;;18.23;9.30;;;9.40;63.80;;;;;;4989693;28;21467;-61
2020/12/23 00:46:38;;;;;;;16.17;9.45;;;9.40;63.80;;;;;;4988604;28;20038;-61
2020/12/23 00:49:04;;;;;;;21.40;9.52;;;9.40;64.00;;;;;;4990359;28;20030;-61
2020/12/23 00:51:30;;;;;;;24.13;11.18;;;9.40;64.30;;;;;;4995613;28;20034;-61
2020/12/23 00:53:55;;;;;;;25.85;11.68;;;9.40;64.40;;;;;;4993098;28;20104;-61
2020/12/23 00:56:21;;;;;;;31.98;11.98;;;9.40;64.60;;;;;;4990244;28;20042;-61
2020/12/23 00:58:46;;;;;;;24.27;10.88;;;9.50;64.80;;;;;;4993702;28;20409;-61
2020/12/23 01:01:13;;;;;;;16.05;9.32;;;9.50;64.60;;;;;;4993260;28;20065;-61
2020/12/23 01:03:39;;;;;;;27.48;9.40;;;9.50;64.40;;;;;;4996368;28;20511;-61
2020/12/23 01:06:12;;;;;;;45.20;9.52;;;9.50;64.20;;;;;;4995051;28;20072;-61
2020/12/23 01:08:38;;;;;;;20.83;10.88;;;9.50;64.10;;;;;;5003452;28;20818;-62
2020/12/23 01:11:07;;;;;;;16.10;7.57;;;9.50;64.20;;;;;;4995734;28;20053;-61
2020/12/23 01:13:34;;;;;;;42.40;8.32;;;9.40;63.90;;;;;;4998668;28;20525;-61
2020/12/23 01:16:00;;;;;;;23.45;8.90;;;9.40;63.90;;;;;;4980755;28;20057;-62
2020/12/23 01:18:26;;;;;;;57.00;9.63;;;9.30;63.80;;;;;;4996226;28;20042;-61
2020/12/23 01:20:52;;;;;;;26.45;9.63;;;9.30;63.80;;;;;;4997224;28;20030;-61
2020/12/23 01:23:18;;;;;;;37.83;10.43;;;9.30;63.90;;;;;;4996665;28;21840;-61
2020/12/23 01:25:44;;;;;;;41.17;11.60;;;9.30;64.00;;;;;;4996664;28;20046;-61
2020/12/23 01:28:10;;;;;;;67.07;13.82;;;9.30;64.30;;;;;;4993889;28;20044;-61
2020/12/23 01:30:36;;;;;;;44.80;13.07;;;9.30;64.50;;;;;;4993354;28;20120;-61
2020/12/23 01:33:03;;;;;;;64.13;13.52;;;9.40;64.80;;;;;;4994697;28;20418;-61
2020/12/23 01:35:29;;;;;;;72.75;15.65;;;9.40;64.70;;;;;;4998958;28;20124;-61
2020/12/23 01:37:54;;;;;;;85.80;16.08;;;9.40;64.80;;;;;;4996005;28;20064;-61
2020/12/23 01:40:20;;;;;;;118.05;17.27;;;9.50;65.00;;;;;;4994931;28;20506;-61
2020/12/23 01:42:45;;;;;;;71.65;14.73;;;9.60;65.10;;;;;;4994740;28;20050;-61
2020/12/23 01:45:11;;;;;;;76.40;14.02;;;9.60;65.00;;;;;;5002909;28;20045;-61
2020/12/23 01:47:43;;;;;;;104.05;17.90;;;9.70;65.00;;;;;;5001163;28;20042;-62
2020/12/23 01:50:08;;;;;;;121.55;18.60;;;9.70;65.00;;;;;;4998454;28;20041;-61
2020/12/23 01:52:34;;;;;;;84.20;15.95;;;9.80;65.20;;;;;;4995055;28;20045;-62
2020/12/23 01:55:01;;;;;;;112.65;16.10;;;9.90;65.30;;;;;;4997545;28;20026;-61
2020/12/23 01:57:26;;;;;;;184.60;19.08;;;9.90;65.20;;;;;;4995736;28;20038;-61
2020/12/23 01:59:52;;;;;;;151.15;19.55;;;10.00;65.10;;;;;;4988082;28;20061;-61
2020/12/23 02:02:31;;;;;;;209.63;19.42;;;10.00;64.90;;;;;;4993762;28;20041;-61
2020/12/23 02:05:01;;;;;;;88.72;14.50;;;10.00;64.90;;;;;;4995647;28;20485;-61
2020/12/23 02:07:28;;;;;;;116.88;14.68;;;10.00;64.60;;;;;;4997957;28;20088;-61
2020/12/23 02:09:55;;;;;;;111.85;15.32;;;10.00;64.40;;;;;;4995566;28;20576;-61
2020/12/23 02:12:22;;;;;;;128.88;16.58;;;9.90;64.20;;;;;;4999882;28;20061;-61
2020/12/23 02:14:48;;;;;;;112.20;17.05;;;9.90;65.00;;;;;;4996793;28;20046;-61
2020/12/23 02:17:15;;;;;;;95.53;17.40;;;9.90;64.40;;;;;;4995022;28;20057;-61
2020/12/23 02:19:50;;;;;;;90.97;16.42;;;9.80;65.20;;;;;;4997767;28;20038;-61
2020/12/23 02:22:26;;;;;;;63.70;13.90;;;9.80;64.70;;;;;;4998148;28;20068;-61
2020/12/23 02:24:52;;;;;;;88.00;15.93;;;9.80;64.70;;;;;;4995268;28;20021;-62
2020/12/23 02:27:19;;;;;;;82.78;15.63;;;9.80;64.60;;;;;;4994378;28;20124;-61
2020/12/23 02:29:54;;;;;;;153.60;18.67;;;9.80;64.60;;;;;;4994351;28;20398;-61
2020/12/23 02:32:20;;;;;;;80.68;15.43;;;9.80;64.60;;;;;;4991951;28;20029;-62
2020/12/23 02:34:47;;;;;;;108.53;17.45;;;9.80;64.60;;;;;;4996812;28;20061;-61
2020/12/23 02:37:13;;;;;;;104.88;17.05;;;9.80;64.70;;;;;;4997685;28;20026;-61
2020/12/23 02:39:43;;;;;;;120.60;18.42;;;9.80;64.70;;;;;;4997753;28;20037;-61
2020/12/23 02:42:09;;;;;;;98.25;18.23;;;9.80;64.70;;;;;;4993741;28;20088;-61
2020/12/23 02:44:35;;;;;;;92.22;19.27;;;9.90;64.80;;;;;;4987005;28;20060;-61
2020/12/23 02:47:11;;;;;;;92.28;18.10;;;9.90;64.90;;;;;;4993676;28;20552;-61
2020/12/23 02:49:38;;;;;;;54.45;16.90;;;9.90;65.00;;;;;;4995781;28;20048;-61
2020/12/23 02:52:04;;;;;;;67.28;16.58;;;9.90;65.10;;;;;;4991711;28;20144;-61
2020/12/23 02:54:30;;;;;;;84.30;17.45;;;10.00;65.30;;;;;;4994702;28;20038;-61
2020/12/23 02:56:56;;;;;;;97.80;18.80;;;10.10;65.30;;;;;;4996879;28;20514;-61
2020/12/23 02:59:24;;;;;;;82.45;18.17;;;10.10;65.30;;;;;;4996846;28;20064;-61
2020/12/23 03:01:49;;;;;;;88.10;19.35;;;10.20;65.30;;;;;;4993810;28;20030;-61
2020/12/23 03:04:15;;;;;;;111.45;20.83;;;10.20;65.30;;;;;;4994499;28;20034;-61
2020/12/23 03:06:41;;;;;;;71.70;19.50;;;10.30;65.50;;;;;;4995713;28;20479;-62
2020/12/23 03:09:08;;;;;;;91.20;18.08;;;10.30;65.40;;;;;;4994711;28;20046;-61
2020/12/23 03:11:34;;;;;;;82.30;18.98;;;10.30;65.30;;;;;;4990077;28;20046;-61
2020/12/23 03:14:00;;;;;;;107.30;20.42;;;10.40;65.30;;;;;;4994447;28;20046;-61
2020/12/23 03:16:26;;;;;;;78.20;18.08;;;10.40;65.30;;;;;;4993494;28;20444;-62
2020/12/23 03:18:53;;;;;;;74.75;18.25;;;10.30;65.20;;;;;;4994742;28;20111;-61
2020/12/23 03:21:19;;;;;;;102.47;19.30;;;10.30;65.20;;;;;;4991985;28;22054;-61
2020/12/23 03:23:44;;;;;;;57.70;17.45;;;10.30;66.00;;;;;;4994023;28;20038;-61
2020/12/23 03:26:13;;;;;;;99.07;18.30;;;10.30;65.30;;;;;;4991038;28;20049;-61
2020/12/23 03:28:38;;;;;;;68.95;15.93;;;10.30;65.30;;;;;;4995057;28;20030;-61
2020/12/23 03:31:05;;;;;;;98.82;18.38;;;10.30;65.30;;;;;;4989269;28;20112;-61
2020/12/23 03:33:31;;;;;;;55.80;16.20;;;10.30;65.20;;;;;;4974184;28;20478;-63
2020/12/23 03:35:57;;;;;;;81.75;17.27;;;10.40;65.30;;;;;;4990155;28;20096;-62
2020/12/23 03:38:23;;;;;;;71.35;17.25;;;10.40;65.20;;;;;;4993937;28;20124;-61
2020/12/23 03:40:49;;;;;;;60.60;16.85;;;10.30;65.10;;;;;;4991971;28;20038;-61
2020/12/23 03:43:15;;;;;;;96.45;18.33;;;10.30;65.20;;;;;;4990057;28;20038;-62
2020/12/23 03:45:41;;;;;;;127.55;18.40;;;10.30;65.30;;;;;;4992736;28;20089;-62
2020/12/23 03:48:06;;;;;;;83.32;18.40;;;10.30;65.30;;;;;;4991319;28;20074;-61
2020/12/23 03:50:33;;;;;;;119.13;18.17;;;10.30;65.20;;;;;;4991982;28;20045;-61
2020/12/23 03:52:59;;;;;;;113.95;19.92;;;10.30;65.30;;;;;;4973601;28;20038;-61
2020/12/23 03:55:25;;;;;;;109.00;19.88;;;10.30;65.40;;;;;;4993048;28;20065;-61
2020/12/23 03:57:50;;;;;;;162.48;21.38;;;10.40;65.40;;;;;;4991070;28;20656;-61
2020/12/23 04:00:16;;;;;;;171.98;22.90;;;10.40;65.40;;;;;;4985967;28;20125;-61
2020/12/23 04:02:42;;;;;;;170.63;22.95;;;10.40;65.50;;;;;;4987908;28;20046;-61
2020/12/23 04:05:08;;;;;;;127.03;20.48;;;10.50;65.50;;;;;;4990110;28;20034;-61
2020/12/23 04:07:34;;;;;;;117.95;22.10;;;10.50;65.50;;;;;;4989629;28;20038;-61
2020/12/23 04:10:00;;;;;;;134.18;23.17;;;10.50;65.60;;;;;;4988779;28;20513;-61
2020/12/23 04:12:26;;;;;;;121.10;21.98;;;10.50;65.60;;;;;;4991936;28;20447;-62
2020/12/23 04:14:52;;;;;;;72.75;21.20;;;10.50;65.60;;;;;;4987377;28;20042;-62
2020/12/23 04:17:18;;;;;;;84.82;20.92;;;10.50;65.60;;;;;;4992052;28;20026;-62
2020/12/23 04:19:44;;;;;;;94.65;20.60;;;10.60;65.70;;;;;;4988990;28;20149;-62
2020/12/23 04:22:10;;;;;;;111.82;23.33;;;10.60;65.60;;;;;;4991139;28;20041;-62
2020/12/23 04:24:36;;;;;;;93.80;21.75;;;10.60;65.50;;;;;;4992946;28;20046;-61
2020/12/23 04:27:02;;;;;;;82.45;22.55;;;10.60;65.50;;;;;;4995578;28;20088;-61
2020/12/23 04:29:27;;;;;;;81.28;20.77;;;10.60;66.20;;;;;;4992524;28;20046;-62
2020/12/23 04:31:53;;;;;;;79.75;22.73;;;10.70;65.50;;;;;;4984409;28;20042;-62
2020/12/23 04:34:19;;;;;;;64.45;21.25;;;10.70;65.50;;;;;;4986821;28;20034;-61
2020/12/23 04:36:44;;;;;;;76.25;20.65;;;10.70;65.50;;;;;;4992642;28;20039;-61
2020/12/23 04:39:10;;;;;;;66.85;20.75;;;10.80;65.50;;;;;;4995780;28;20061;-61
2020/12/23 04:41:36;;;;;;;69.72;22.60;;;10.80;65.40;;;;;;4995698;28;20034;-62
2020/12/23 04:44:06;;;;;;;63.35;20.10;;;10.80;65.40;;;;;;4988876;28;20121;-62
2020/12/23 04:46:35;;;;;;;59.65;19.27;;;10.80;65.40;;;;;;4992451;28;20053;-62
2020/12/23 04:49:02;;;;;;;95.15;22.20;;;10.80;65.40;;;;;;4972958;28;20067;-62
2020/12/23 04:51:35;;;;;;;73.60;21.40;;;10.80;65.30;;;;;;4987898;28;20042;-61
2020/12/23 04:54:05;;;;;;;55.22;21.20;;;10.80;65.20;;;;;;4991590;28;20034;-61
2020/12/23 04:56:33;;;;;;;59.63;20.92;;;10.80;65.20;;;;;;4990742;28;20407;-63
2020/12/23 04:59:00;;;;;;;56.58;21.38;;;10.80;65.30;;;;;;4992926;28;20103;-64
2020/12/23 05:01:26;;;;;;;56.50;20.30;;;10.80;65.30;;;;;;4990416;28;20585;-61
2020/12/23 05:03:52;;;;;;;56.20;20.17;;;10.80;66.10;;;;;;4988570;28;20045;-61
2020/12/23 05:06:19;;;;;;;57.28;22.35;;;10.80;65.60;;;;;;4990471;28;20100;-61
2020/12/23 05:08:45;;;;;;;55.63;21.45;;;10.80;65.60;;;;;;4989379;28;20045;-61
2020/12/23 05:11:11;;;;;;;51.97;20.08;;;10.80;65.60;;;;;;4985619;28;20034;-61
2020/12/23 05:13:39;;;;;;;48.53;19.33;;;10.80;65.60;;;;;;4993543;28;20718;-61
2020/12/23 05:16:07;;;;;;;49.15;19.30;;;10.80;65.60;;;;;;4991056;28;20123;-61
2020/12/23 05:18:39;;;;;;;50.70;20.25;;;10.80;65.40;;;;;;4994812;28;20596;-61
2020/12/23 05:21:15;;;;;;;61.50;21.40;;;10.80;65.50;;;;;;4991743;28;20050;-61
2020/12/23 05:23:46;;;;;;;52.25;20.55;;;10.70;65.60;;;;;;4993862;28;20119;-61
2020/12/23 05:26:13;;;;;;;50.83;21.17;;;10.80;65.70;;;;;;4991931;28;20087;-62
2020/12/23 05:28:41;;;;;;;60.50;20.65;;;10.70;65.60;;;;;;4993752;28;20029;-61
2020/12/23 05:31:12;;;;;;;55.50;20.30;;;10.70;65.60;;;;;;4994427;28;20070;-61
2020/12/23 05:33:39;;;;;;;53.30;19.20;;;10.80;65.70;;;;;;4993874;28;20034;-61
2020/12/23 05:36:11;;;;;;;59.28;20.10;;;10.80;66.40;;;;;;4991989;28;20414;-62
2020/12/23 05:38:37;;;;;;;48.58;19.95;;;10.80;65.60;;;;;;4997159;28;20038;-61
2020/12/23 05:41:05;;;;;;;54.58;19.63;;;10.80;65.50;;;;;;4994641;28;20041;-62
2020/12/23 05:43:31;;;;;;;63.85;21.02;;;10.80;65.60;;;;;;4992931;28;20046;-62
2020/12/23 05:45:58;;;;;;;47.92;19.50;;;10.80;65.60;;;;;;4992636;28;20494;-61
2020/12/23 05:48:25;;;;;;;45.47;18.42;;;10.80;65.60;;;;;;4993681;28;20046;-61
2020/12/23 05:50:51;;;;;;;48.72;19.23;;;10.80;65.50;;;;;;4992909;28;20038;-61
2020/12/23 05:53:17;;;;;;;50.17;20.10;;;10.80;65.60;;;;;;4992147;28;20044;-61
2020/12/23 05:55:47;;;;;;;49.92;19.42;;;10.80;65.70;;;;;;4978714;28;20588;-61
2020/12/23 05:58:27;;;;;;;47.88;18.70;;;10.80;65.60;;;;;;4995942;28;20065;-61
2020/12/23 06:00:54;;;;;;;52.53;20.55;;;10.80;65.70;;;;;;4993913;28;20038;-61
2020/12/23 06:03:23;;;;;;;65.55;22.00;;;10.80;65.60;;;;;;4995045;28;20038;-62
2020/12/23 06:06:00;;;;;;;64.18;23.17;;;10.80;65.60;;;;;;4996219;28;20069;-62
2020/12/23 06:08:31;;;;;;;69.32;22.63;;;10.80;65.60;;;;;;5000220;28;20120;-62
2020/12/23 06:11:37;;;;;;;71.95;23.45;;;10.80;65.60;;;;;;4976773;28;20562;-62
2020/12/23 06:14:21;;;;;;;66.55;23.48;;;10.80;65.60;;;;;;4994973;28;20629;-61
2020/12/23 06:16:50;;;;;;;74.68;24.23;;;10.80;66.30;;;;;;4997918;28;20506;-61
2020/12/23 06:19:19;;;;;;;83.00;26.15;;;10.80;65.70;;;;;;4998105;28;20386;-61
2020/12/23 06:21:45;;;;;;;97.28;28.88;;;10.80;65.70;;;;;;4992924;28;20038;-62
2020/12/23 06:24:13;;;;;;;91.45;24.88;;;10.80;65.70;;;;;;4995401;28;20046;-62
2020/12/23 06:26:41;;;;;;;98.07;23.55;;;10.80;65.70;;;;;;4995705;28;20057;-61
2020/12/23 06:29:09;;;;;;;89.10;24.40;;;10.80;65.80;;;;;;4999276;28;20046;-62
2020/12/23 06:32:02;;;;;;;80.82;22.25;;;10.80;65.80;;;;;;4992972;28;20038;-62
2020/12/23 06:34:41;;;;;;;79.15;23.42;;;10.70;65.70;;;;;;4990920;28;20049;-62
2020/12/23 06:37:18;;;;;;;77.13;23.83;;;10.70;65.70;;;;;;4995127;28;20038;-62
2020/12/23 06:39:45;;;;;;;87.43;22.33;;;10.70;65.70;;;;;;4996723;28;20778;-62
2020/12/23 06:42:10;;;;;;;85.45;23.02;;;10.70;65.70;;;;;;4996723;28;20045;-62
2020/12/23 06:44:42;;;;;;;81.07;24.02;;;10.60;65.70;;;;;;4993345;28;20056;-62
2020/12/23 06:47:31;;;;;;;71.20;21.77;;;10.60;65.70;;;;;;4996634;28;20050;-62
2020/12/23 06:50:03;;;;;;;66.00;21.88;;;10.60;65.80;;;;;;4993871;28;20033;-61
2020/12/23 06:52:31;;;;;;;68.95;21.80;;;10.60;65.80;;;;;;4996404;28;20037;-61
2020/12/23 06:55:07;;;;;;;79.57;24.05;;;10.60;65.80;;;;;;4995168;28;20491;-64
2020/12/23 06:57:38;;;;;;;81.20;23.35;;;10.50;65.90;;;;;;4998018;28;20046;-61
2020/12/23 07:00:06;;;;;;;86.88;24.17;;;10.60;66.00;;;;;;4992171;28;20037;-61
2020/12/23 07:02:43;;;;;;;79.10;25.38;;;10.60;66.10;;;;;;4993380;28;20046;-61
2020/12/23 07:05:14;;;;;;;91.25;24.60;;;10.60;66.20;;;;;;4995611;28;22300;-61
2020/12/23 07:07:43;;;;;;;103.80;26.77;;;10.60;66.10;;;;;;4994161;28;20054;-61
2020/12/23 07:10:17;;;;;;;103.25;26.83;;;10.60;66.10;;;;;;4989480;28;20042;-62
2020/12/23 07:12:48;;;;;;;116.63;28.05;;;10.60;66.10;;;;;;4992685;28;20041;-61
2020/12/23 07:15:19;;;;;;;117.75;28.95;;;10.60;66.20;;;;;;4999997;28;20034;-61
2020/12/23 07:17:46;;;;;;;108.55;28.27;;;10.60;66.20;;;;;;4996212;28;20088;-61
2020/12/23 07:20:16;;;;;;;115.03;29.50;;;10.60;66.20;;;;;;4996973;28;20099;-61
2020/12/23 07:22:47;;;;;;;119.38;29.05;;;10.60;66.20;;;;;;4997040;28;20125;-61
2020/12/23 07:25:24;;;;;;;126.40;28.52;;;10.60;66.20;;;;;;4998916;28;20514;-61
2020/12/23 07:27:58;;;;;;;116.32;29.23;;;10.60;66.10;;;;;;4999293;28;20248;-61
2020/12/23 07:30:24;;;;;;;119.30;30.17;;;10.60;66.10;;;;;;4995429;28;20034;-61
2020/12/23 07:33:23;;;;;;;109.45;30.35;;;10.70;66.20;;;;;;4999493;28;20096;-61
2020/12/23 07:35:59;;;;;;;113.32;29.63;;;10.60;66.10;;;;;;4972437;28;20060;-61
2020/12/23 07:38:28;;;;;;;115.35;30.55;;;10.70;66.10;;;;;;5000216;28;20115;-61
2020/12/23 07:40:54;;;;;;;115.97;30.60;;;10.70;66.20;;;;;;4997934;28;20042;-61
2020/12/23 07:43:21;;;;;;;94.05;29.30;;;10.70;66.20;;;;;;5003746;28;20041;-61
2020/12/23 07:45:48;;;;;;;112.93;31.08;;;10.70;66.10;;;;;;4999860;28;20037;-61
2020/12/23 07:48:16;;;;;;;108.93;30.88;;;10.80;66.20;;;;;;4995965;28;20049;-61
2020/12/23 07:50:53;;;;;;;100.97;29.45;;;10.80;66.30;;;;;;4998867;28;20179;-61
2020/12/23 07:53:27;;;;;;;101.05;30.48;;;10.80;66.20;;;;;;4992546;28;20038;-61
2020/12/23 07:56:05;;;;;;;90.28;28.95;;;10.80;66.20;;;;;;4999635;28;20041;-61
2020/12/23 07:58:32;;;;;;;91.65;29.15;;;10.80;66.30;;;;;;4996042;28;20041;-62
2020/12/23 08:00:58;;;;;;;93.28;29.33;;;10.90;66.30;;;;;;4993681;28;20026;-61
2020/12/23 08:03:28;;;;;;;83.93;28.17;;;10.90;66.30;;;;;;4999254;28;20115;-61
2020/12/23 08:06:25;;;;;;;91.22;26.73;;;10.90;66.30;;;;;;4998009;28;20048;-61
2020/12/23 08:08:51;;;;;;;85.20;27.10;;;10.90;66.30;;;;;;4976784;28;20038;-61
2020/12/23 08:11:16;;;;;;;84.18;27.67;;;11.00;66.30;;;;;;4997547;28;20045;-61
2020/12/23 08:13:44;;;;;;;79.80;26.33;;;11.00;66.30;;;;;;4993387;28;20062;-61
2020/12/23 08:16:11;;;;;;;69.72;25.00;;;11.00;66.40;;;;;;4996944;28;20038;-61
2020/12/23 08:18:40;;;;;;;69.90;24.83;;;11.00;66.30;;;;;;4998285;28;20185;-62
2020/12/23 08:21:11;;;;;;;69.32;24.38;;;11.10;66.30;;;;;;4998321;28;20034;-61
2020/12/23 08:23:37;;;;;;;80.25;25.35;;;11.10;66.30;;;;;;4996761;28;20034;-61
2020/12/23 08:26:03;;;;;;;68.10;26.30;;;11.10;66.30;;;;;;4992715;28;20812;-61
2020/12/23 08:28:31;;;;;;;74.07;23.98;;;11.10;66.40;;;;;;4994160;28;20037;-61
2020/12/23 08:30:57;;;;;;;63.95;22.58;;;11.10;66.30;;;;;;4995807;28;20553;-61
2020/12/23 08:33:23;;;;;;;66.65;23.95;;;11.10;66.30;;;;;;4995164;28;20041;-61
2020/12/23 08:35:57;;;;;;;62.70;23.80;;;11.10;66.30;;;;;;5013856;22;20091;-67
2020/12/23 08:38:26;;;;;;;61.03;21.95;;;11.20;66.50;;;;;;5008515;28;20076;-66
2020/12/23 08:40:54;;;;;;;64.68;22.08;;;11.20;66.40;;;;;;5008689;28;20129;-66
2020/12/23 08:43:25;;;;;;;59.55;21.23;;;11.20;66.50;;;;;;5017807;28;20264;-66
2020/12/23 08:45:51;;;;;;;56.85;21.88;;;11.20;66.50;;;;;;5018411;28;20041;-66
2020/12/23 08:48:18;;;;;;;60.88;23.27;;;11.20;66.50;;;;;;5015550;28;20086;-66
2020/12/23 08:50:52;;;;;;;65.03;23.85;;;11.30;66.60;;;;;;5014810;28;20045;-66
2020/12/23 08:53:18;;;;;;;63.30;22.55;;;11.30;66.60;;;;;;5018193;28;20057;-66
2020/12/23 08:55:44;;;;;;;66.47;23.77;;;11.30;66.60;;;;;;5009163;28;20463;-66
2020/12/23 08:58:10;;;;;;;77.65;24.63;;;11.30;66.60;;;;;;5022491;28;20034;-67
2020/12/23 09:00:35;;;;;;;78.55;26.05;;;11.30;66.70;;;;;;5016145;28;20045;-66
2020/12/23 09:03:01;;;;;;;86.57;27.05;;;11.40;66.60;;;;;;5019663;28;20037;-67
2020/12/23 09:05:31;;;;;;;78.10;25.70;;;11.40;66.70;;;;;;5019374;28;20553;-66
2020/12/23 09:08:07;;;;;;;69.38;26.77;;;11.40;66.70;;;;;;5015876;28;20568;-67
2020/12/23 09:10:39;;;;;;;75.38;27.23;;;11.40;66.70;;;;;;5016247;28;20393;-67
2020/12/23 09:13:11;;;;;;;67.45;24.83;;;11.50;66.70;;;;;;5015100;28;20056;-67
2020/12/23 09:15:38;;;;;;;80.35;27.30;;;11.50;66.70;;;;;;5009679;28;20045;-66
2020/12/23 09:18:11;;;;;;;74.53;27.02;;;11.50;66.70;;;;;;5016982;28;20037;-66
2020/12/23 09:20:38;;;;;;;68.65;24.95;;;11.60;66.90;;;;;;5018866;28;20057;-66
2020/12/23 09:23:09;;;;;;;71.60;25.35;;;11.60;66.70;;;;;;5019995;28;20034;-66
2020/12/23 09:25:36;;;;;;;73.18;26.05;;;11.60;66.60;;;;;;5021476;28;20054;-66
2020/12/23 09:28:13;;;;;;;77.97;26.17;;;11.60;66.60;;;;;;5017140;28;20124;-66
2020/12/23 09:30:40;;;;;;;64.35;25.63;;;11.70;66.80;;;;;;4999137;28;20095;-66
2020/12/23 09:33:11;;;;;;;72.65;24.60;;;11.70;66.70;;;;;;5023256;28;20033;-66
2020/12/23 09:35:38;;;;;;;69.60;24.75;;;11.70;66.70;;;;;;5015189;28;20046;-67
2020/12/23 09:38:08;;;;;;;65.13;23.58;;;11.70;66.70;;;;;;4998093;28;20567;-67
2020/12/23 09:40:39;;;;;;;69.50;23.85;;;11.70;66.70;;;;;;5016475;28;20045;-66
2020/12/23 09:43:22;;;;;;;65.63;23.30;;;11.80;66.70;;;;;;5010953;28;20043;-67
2020/12/23 09:45:52;;;;;;;59.28;22.33;;;11.80;66.60;;;;;;5009063;28;20485;-67
2020/12/23 09:48:21;;;;;;;65.57;22.45;;;11.80;66.70;;;;;;4994723;28;20041;-67
2020/12/23 09:50:47;;;;;;;56.95;21.63;;;11.80;66.50;;;;;;5010821;28;20044;-67
2020/12/23 09:53:13;;;;;;;65.60;22.33;;;11.80;66.60;;;;;;5004231;28;20033;-67
2020/12/23 09:55:40;;;;;;;61.90;21.75;;;11.80;66.70;;;;;;5010374;28;20144;-67
2020/12/23 09:58:05;;;;;;;55.95;21.15;;;11.80;66.70;;;;;;5002022;28;20034;-66
2020/12/23 10:00:31;;;;;;;58.25;21.52;;;11.80;66.70;;;;;;4993386;28;20093;-67
2020/12/23 10:02:57;;;;;;;65.00;20.80;;;11.90;66.70;;;;;;5012367;28;20047;-66
2020/12/23 10:05:22;;;;;;;69.93;20.67;;;11.90;66.70;;;;;;5012908;28;20084;-66
2020/12/23 10:07:48;;;;;;;57.15;20.33;;;11.90;66.60;;;;;;4993943;28;20585;-67
2020/12/23 10:10:16;;;;;;;62.88;20.40;;;11.90;66.60;;;;;;5010903;28;20779;-66
2020/12/23 10:12:44;;;;;;;61.72;21.65;;;11.90;66.60;;;;;;5007617;28;20068;-67
2020/12/23 10:15:10;;;;;;;62.53;20.50;;;11.90;66.50;;;;;;5004374;28;20444;-67
2020/12/23 10:17:36;;;;;;;48.08;18.35;;;11.90;66.70;;;;;;5004854;28;20039;-67
2020/12/23 10:20:07;;;;;;;59.95;20.58;;;11.90;66.60;;;;;;5008778;28;20339;-67
2020/12/23 10:22:32;;;;;;;51.50;19.70;;;11.90;66.90;;;;;;5004612;28;20033;-67
2020/12/23 10:24:58;;;;;;;55.05;18.92;;;11.90;66.60;;;;;;5008730;28;20093;-66
2020/12/23 10:27:24;;;;;;;52.25;19.73;;;12.00;66.70;;;;;;5006924;28;21041;-66
2020/12/23 10:29:50;;;;;;;56.15;19.40;;;11.90;66.70;;;;;;5007056;28;20041;-66
2020/12/23 10:32:17;;;;;;;54.20;19.23;;;12.00;66.70;;;;;;4992934;28;20235;-67
2020/12/23 10:34:42;;;;;;;50.63;20.13;;;12.00;66.70;;;;;;5010257;28;20030;-67
2020/12/23 10:37:08;;;;;;;49.47;19.58;;;12.00;66.50;;;;;;4992697;28;20049;-67
2020/12/23 10:39:33;;;;;;;54.13;20.38;;;12.00;66.50;;;;;;5007829;28;20041;-67
2020/12/23 10:41:59;;;;;;;58.63;20.17;;;12.00;66.50;;;;;;5007159;28;20481;-67
2020/12/23 10:44:25;;;;;;;56.33;20.55;;;12.00;66.60;;;;;;5011915;28;20033;-67
2020/12/23 10:47:00;;;;;;;62.25;21.48;;;11.90;66.60;;;;;;5008472;28;20073;-67
2020/12/23 10:49:26;;;;;;;53.78;21.05;;;12.00;66.70;;;;;;5009381;28;20045;-67
2020/12/23 10:51:57;;;;;;;62.00;22.10;;;12.00;66.70;;;;;;4993195;28;20512;-67
2020/12/23 10:54:24;;;;;;;69.35;22.60;;;12.00;66.70;;;;;;5009103;28;20498;-67
2020/12/23 10:56:50;;;;;;;59.83;20.45;;;12.00;66.80;;;;;;5004911;28;20041;-67
2020/12/23 10:59:16;;;;;;;54.97;20.30;;;12.10;66.80;;;;;;5005921;28;20044;-68
2020/12/23 11:01:42;;;;;;;56.80;19.13;;;12.10;66.70;;;;;;5003379;28;20125;-68
2020/12/23 11:04:07;;;;;;;53.72;19.58;;;12.10;66.40;;;;;;4997858;28;20609;-68
2020/12/23 11:06:33;;;;;;;56.97;19.98;;;12.00;66.40;;;;;;5006492;28;20041;-68
2020/12/23 11:08:59;;;;;;;57.00;20.30;;;12.10;66.50;;;;;;5009006;28;20516;-68
2020/12/23 11:11:26;;;;;;;50.10;20.45;;;12.10;66.70;;;;;;5004605;28;20037;-67
2020/12/23 11:13:52;;;;;;;61.67;21.55;;;12.10;66.80;;;;;;4984613;28;20029;-67
2020/12/23 11:16:20;;;;;;;50.90;19.88;;;12.10;66.80;;;;;;5006328;28;20430;-68
2020/12/23 11:18:46;;;;;;;54.35;20.55;;;12.10;66.80;;;;;;5010552;28;20052;-67
2020/12/23 11:21:15;;;;;;;57.25;20.35;;;12.20;66.70;;;;;;5006669;28;20041;-67
2020/12/23 11:23:44;;;;;;;58.97;20.92;;;12.20;66.70;;;;;;5009564;28;20067;-68
2020/12/23 11:26:17;;;;;;;58.67;21.38;;;12.20;66.70;;;;;;5012423;28;20120;-68
2020/12/23 11:28:43;;;;;;;64.63;21.10;;;12.10;66.50;;;;;;5007543;28;20675;-67
2020/12/23 11:31:09;;;;;;;64.32;21.52;;;12.10;66.50;;;;;;5005522;28;20344;-67
2020/12/23 11:33:35;;;;;;;60.58;22.30;;;12.20;66.70;;;;;;4997882;28;20679;-68
2020/12/23 11:36:01;;;;;;;65.15;21.77;;;12.10;66.60;;;;;;4989189;28;20862;-67
2020/12/23 11:38:26;;;;;;;64.72;23.63;;;12.10;66.50;;;;;;5006188;28;20037;-68
2020/12/23 11:40:52;;;;;;;60.42;22.70;;;12.10;66.60;;;;;;5005964;28;20033;-68
2020/12/23 11:43:17;;;;;;;63.05;22.25;;;12.10;66.70;;;;;;5007101;28;20421;-68
2020/12/23 11:45:44;;;;;;;62.40;22.80;;;12.10;66.70;;;;;;5005456;28;20061;-67
2020/12/23 11:48:09;;;;;;;63.28;23.67;;;12.10;66.70;;;;;;4997361;28;20202;-67
2020/12/23 11:50:35;;;;;;;65.03;23.23;;;12.10;67.50;;;;;;4994051;28;20047;-68
2020/12/23 11:53:01;;;;;;;69.70;23.35;;;12.10;66.80;;;;;;5001781;28;20124;-68
2020/12/23 11:55:27;;;;;;;65.00;23.63;;;12.20;66.90;;;;;;5010067;28;20513;-68
2020/12/23 11:57:52;;;;;;;66.03;23.50;;;12.20;67.10;;;;;;5007302;28;20120;-68
2020/12/23 12:00:18;;;;;;;70.60;24.23;;;12.20;67.00;;;;;;5000684;28;20346;-68
2020/12/23 12:02:44;;;;;;;60.55;23.08;;;12.30;67.00;;;;;;5003638;28;20061;-68
2020/12/23 12:05:10;;;;;;;64.75;24.33;;;12.30;66.90;;;;;;5002260;28;20060;-68
2020/12/23 12:07:38;;;;;;;68.53;24.02;;;12.30;66.80;;;;;;5004044;28;20042;-68
2020/12/23 12:10:07;;;;;;;73.07;25.33;;;12.30;66.80;;;;;;5000690;28;20132;-68
2020/12/23 12:12:33;;;;;;;81.38;25.17;;;12.40;66.90;;;;;;5001863;28;20429;-68
2020/12/23 12:14:58;;;;;;;79.55;25.48;;;12.40;66.90;;;;;;5003659;28;20496;-68
2020/12/23 12:17:24;;;;;;;84.00;26.27;;;12.40;66.80;;;;;;5003924;28;20424;-68
2020/12/23 12:19:50;;;;;;;78.30;25.73;;;12.40;66.80;;;;;;5006558;28;20041;-68
2020/12/23 12:22:16;;;;;;;75.53;27.15;;;12.30;66.90;;;;;;5010849;28;20567;-68
2020/12/23 12:24:42;;;;;;;76.85;27.00;;;12.40;67.10;;;;;;5000758;28;20037;-68
2020/12/23 12:27:07;;;;;;;86.32;26.88;;;12.40;67.00;;;;;;4997909;28;20460;-67
2020/12/23 12:29:33;;;;;;;87.07;28.67;;;12.40;66.90;;;;;;4998935;28;20494;-67
2020/12/23 12:32:01;;;;;;;95.10;28.77;;;12.50;67.00;;;;;;5003435;28;20040;-68